createdAt,value
2023-04-01T00:01:06.938Z,100.00
2023-04-01T00:03:34.528Z,100.00
2023-04-01T00:06:01.942Z,100.00
2023-04-01T00:08:28.959Z,100.00
2023-04-01T00:10:56.201Z,100.00
2023-04-01T00:13:23.237Z,100.00
2023-04-01T00:15:50.239Z,100.00
2023-04-01T00:18:17.267Z,100.00
2023-04-01T00:20:48.703Z,100.00
2023-04-01T00:23:16.127Z,100.00
2023-04-01T00:25:43.273Z,100.00
2023-04-01T00:28:10.764Z,100.00
2023-04-01T00:30:38.106Z,100.00
2023-04-01T00:33:06.025Z,100.00
2023-04-01T00:35:33.499Z,100.00
2023-04-01T00:38:00.791Z,100.00
2023-04-01T00:40:33.136Z,100.00
2023-04-01T00:43:00.754Z,100.00
2023-04-01T00:45:39.318Z,100.00
2023-04-01T00:48:33.867Z,100.00
2023-04-01T00:51:06.701Z,100.00
2023-04-01T00:53:34.239Z,100.00
2023-04-01T00:56:05.774Z,100.00
2023-04-01T00:58:34.141Z,100.00
2023-04-01T01:01:01.211Z,100.00
2023-04-01T01:03:28.748Z,100.00
2023-04-01T01:06:11.291Z,100.00
2023-04-01T01:09:00.272Z,100.00
2023-04-01T01:11:42.603Z,100.00
2023-04-01T01:14:55.183Z,100.00
2023-04-01T01:17:57.934Z,100.00
2023-04-01T01:20:57.064Z,100.00
2023-04-01T01:23:42.409Z,100.00
2023-04-01T01:26:27.007Z,100.00
2023-04-01T01:29:12.576Z,100.00
2023-04-01T01:31:47.192Z,100.00
2023-04-01T01:34:14.049Z,100.00
2023-04-01T01:36:41.052Z,100.00
2023-04-01T01:39:10.046Z,100.00
2023-04-01T01:41:37.748Z,100.00
2023-04-01T01:44:05.306Z,100.00
2023-04-01T01:46:32.418Z,100.00
2023-04-01T01:48:59.585Z,100.00
2023-04-01T01:51:27.646Z,100.00
2023-04-01T01:53:55.411Z,100.00
2023-04-01T01:56:24.818Z,100.00
2023-04-01T01:59:01.407Z,100.00
2023-04-01T02:01:29.663Z,100.00
2023-04-01T02:04:01.477Z,100.00
2023-04-01T02:06:30.588Z,100.00
2023-04-01T02:09:00.447Z,100.00
2023-04-01T02:11:30.588Z,100.00
2023-04-01T02:13:59.455Z,100.00
2023-04-01T02:16:58.740Z,100.00
2023-04-01T02:19:31.391Z,100.00
2023-04-01T02:22:02.176Z,100.00
2023-04-01T02:24:29.624Z,100.00
2023-04-01T02:26:56.758Z,100.00
2023-04-01T02:29:26.078Z,100.00
2023-04-01T02:31:53.596Z,100.00
2023-04-01T02:34:21.284Z,100.00
2023-04-01T02:36:49.313Z,100.00
2023-04-01T02:39:16.215Z,100.00
2023-04-01T02:41:44.235Z,100.00
2023-04-01T02:44:12.196Z,100.00
2023-04-01T02:46:39.282Z,100.00
2023-04-01T02:49:06.499Z,100.00
2023-04-01T02:51:34.138Z,100.00
2023-04-01T02:54:01.326Z,100.00
2023-04-01T02:56:29.091Z,100.00
2023-04-01T02:58:56.145Z,100.00
2023-04-01T03:01:23.365Z,100.00
2023-04-01T03:03:50.530Z,100.00
2023-04-01T03:06:17.715Z,100.00
2023-04-01T03:08:45.498Z,100.00
2023-04-01T03:11:12.608Z,100.00
2023-04-01T03:13:39.807Z,100.00
2023-04-01T03:16:07.246Z,100.00
2023-04-01T03:18:35.699Z,100.00
2023-04-01T03:21:23.443Z,100.00
2023-04-01T03:23:50.816Z,100.00
2023-04-01T03:26:17.953Z,100.00
2023-04-01T03:28:45.356Z,100.00
2023-04-01T03:31:12.827Z,100.00
2023-04-01T03:33:46.507Z,100.00
2023-04-01T03:36:13.952Z,100.00
2023-04-01T03:38:44.165Z,100.00
2023-04-01T03:41:14.623Z,100.00
2023-04-01T03:43:41.798Z,100.00
2023-04-01T03:46:09.016Z,100.00
2023-04-01T03:48:36.134Z,100.00
2023-04-01T03:51:03.258Z,100.00
2023-04-01T03:53:30.717Z,100.00
2023-04-01T03:56:05.004Z,100.00
2023-04-01T03:58:32.163Z,100.00
2023-04-01T04:00:59.431Z,100.00
2023-04-01T04:03:27.333Z,100.00
2023-04-01T04:05:54.482Z,100.00
2023-04-01T04:08:22.683Z,100.00
2023-04-01T04:10:56.497Z,100.00
2023-04-01T04:13:23.521Z,100.00
2023-04-01T04:15:59.478Z,100.00
2023-04-01T04:18:26.572Z,100.00
2023-04-01T04:20:53.433Z,100.00
2023-04-01T04:23:20.884Z,100.00
2023-04-01T04:25:58.407Z,100.00
2023-04-01T04:28:27.673Z,100.00
2023-04-01T04:30:56.732Z,100.00
2023-04-01T04:33:23.956Z,100.00
2023-04-01T04:35:51.008Z,100.00
2023-04-01T04:38:18.256Z,100.00
2023-04-01T04:40:45.465Z,100.00
2023-04-01T04:43:14.307Z,100.00
2023-04-01T04:45:41.881Z,100.00
2023-04-01T04:48:10.705Z,100.00
2023-04-01T04:50:37.984Z,100.00
2023-04-01T04:53:05.017Z,100.00
2023-04-01T04:55:33.594Z,100.00
2023-04-01T04:58:32.884Z,100.00
2023-04-01T05:01:07.122Z,100.00
2023-04-01T05:03:34.450Z,100.00
2023-04-01T05:06:01.530Z,100.00
2023-04-01T05:08:28.599Z,100.00
2023-04-01T05:10:56.680Z,100.00
2023-04-01T05:13:23.762Z,100.00
2023-04-01T05:15:50.922Z,100.00
2023-04-01T05:18:18.168Z,100.00
2023-04-01T05:20:52.296Z,100.00
2023-04-01T05:23:21.607Z,100.00
2023-04-01T05:25:49.749Z,100.00
2023-04-01T05:28:16.978Z,100.00
2023-04-01T05:30:46.179Z,100.00
2023-04-01T05:33:24.832Z,100.00
2023-04-01T05:35:51.971Z,100.00
2023-04-01T05:38:18.979Z,100.00
2023-04-01T05:40:46.682Z,100.00
2023-04-01T05:43:13.993Z,100.00
2023-04-01T05:45:42.068Z,100.00
2023-04-01T05:48:14.942Z,100.00
2023-04-01T05:50:42.811Z,100.00
2023-04-01T05:53:11.305Z,100.00
2023-04-01T05:55:40.845Z,100.00
2023-04-01T05:58:07.962Z,100.00
2023-04-01T06:00:36.959Z,100.00
2023-04-01T06:03:04.162Z,100.00
2023-04-01T06:05:42.676Z,100.00
2023-04-01T06:08:28.294Z,100.00
2023-04-01T06:10:58.267Z,100.00
2023-04-01T06:13:41.432Z,100.00
2023-04-01T06:16:11.453Z,100.00
2023-04-01T06:19:02.354Z,100.00
2023-04-01T06:21:59.842Z,100.00
2023-04-01T06:24:54.941Z,100.00
2023-04-01T06:27:50.246Z,100.00
2023-04-01T06:30:39.278Z,100.00
2023-04-01T06:33:29.830Z,100.00
2023-04-01T06:36:15.543Z,100.00
2023-04-01T06:39:11.311Z,100.00
2023-04-01T06:41:48.097Z,100.00
2023-04-01T06:44:27.691Z,100.00
2023-04-01T06:47:45.657Z,100.00
2023-04-01T06:50:50.948Z,100.00
2023-04-01T06:54:04.186Z,100.00
2023-04-01T06:56:51.635Z,100.00
2023-04-01T06:59:34.147Z,100.00
2023-04-01T07:02:06.102Z,100.00
2023-04-01T07:04:37.763Z,100.00
2023-04-01T07:07:07.294Z,100.00
2023-04-01T07:09:40.920Z,100.00
2023-04-01T07:12:49.117Z,100.00
2023-04-01T07:15:19.103Z,100.00
2023-04-01T07:17:46.462Z,100.00
2023-04-01T07:20:32.090Z,100.00
2023-04-01T07:23:00.537Z,100.00
2023-04-01T07:25:57.196Z,100.00
2023-04-01T07:28:36.740Z,100.00
2023-04-01T07:31:47.062Z,100.00
2023-04-01T07:34:30.012Z,100.00
2023-04-01T07:37:09.063Z,100.00
2023-04-01T07:39:57.876Z,100.00
2023-04-01T07:42:46.295Z,100.00
2023-04-01T07:45:25.418Z,100.00
2023-04-01T07:48:14.872Z,100.00
2023-04-01T07:51:32.684Z,100.00
2023-04-01T07:54:05.753Z,100.00
2023-04-01T07:56:35.749Z,100.00
2023-04-01T07:59:24.692Z,100.00
2023-04-01T08:02:18.728Z,100.00
2023-04-01T08:05:20.874Z,100.00
2023-04-01T08:07:59.569Z,100.00
2023-04-01T08:10:53.692Z,100.00
2023-04-01T08:13:52.173Z,100.00
2023-04-01T08:16:54.385Z,100.00
2023-04-01T08:19:52.934Z,100.00
2023-04-01T08:22:28.720Z,100.00
2023-04-01T08:25:03.133Z,100.00
2023-04-01T08:28:00.493Z,100.00
2023-04-01T08:30:34.578Z,100.00
2023-04-01T08:33:22.710Z,100.00
2023-04-01T08:36:10.349Z,100.00
2023-04-01T08:38:56.984Z,100.00
2023-04-01T08:41:30.812Z,100.00
2023-04-01T08:44:45.379Z,100.00
2023-04-01T08:47:43.082Z,100.00
2023-04-01T08:50:37.533Z,100.00
2023-04-01T08:53:45.964Z,100.00
2023-04-01T08:56:21.840Z,100.00
2023-04-01T08:59:13.264Z,100.00
2023-04-01T09:02:09.468Z,100.00
2023-04-01T09:05:50.454Z,100.00
2023-04-01T09:09:09.854Z,100.00
2023-04-01T09:12:07.986Z,100.00
2023-04-01T09:14:57.907Z,100.00
2023-04-01T09:17:51.570Z,100.00
2023-04-01T09:20:54.078Z,100.00
2023-04-01T09:23:34.293Z,100.00
2023-04-01T09:26:24.475Z,100.00
2023-04-01T09:29:03.555Z,100.00
2023-04-01T09:31:58.414Z,100.00
2023-04-01T09:35:07.974Z,100.00
2023-04-01T09:37:39.009Z,100.00
2023-04-01T09:40:19.938Z,100.00
2023-04-01T09:43:37.287Z,100.00
2023-04-01T09:46:15.083Z,100.00
2023-04-01T09:49:00.008Z,100.00
2023-04-01T09:51:34.533Z,100.00
2023-04-01T09:54:39.151Z,100.00
2023-04-01T09:57:28.017Z,100.00
2023-04-01T10:00:14.953Z,100.00
2023-04-01T10:03:38.820Z,100.00
2023-04-01T10:06:24.421Z,100.00
2023-04-01T10:09:16.259Z,100.00
2023-04-01T10:12:07.845Z,100.00
2023-04-01T10:14:47.048Z,100.00
2023-04-01T10:17:32.297Z,100.00
2023-04-01T10:20:13.531Z,100.00
2023-04-01T10:23:14.990Z,100.00
2023-04-01T10:26:09.663Z,99.98
2023-04-01T10:29:09.389Z,98.93
2023-04-01T10:31:59.757Z,97.75
2023-04-01T10:34:27.173Z,97.30
2023-04-01T10:37:04.504Z,97.30
2023-04-01T10:40:13.721Z,96.23
2023-04-01T10:43:11.495Z,96.78
2023-04-01T10:46:09.037Z,95.08
2023-04-01T10:48:45.539Z,94.13
2023-04-01T10:51:40.893Z,92.80
2023-04-01T10:54:48.131Z,92.08
2023-04-01T10:58:19.748Z,91.70
2023-04-01T11:01:44.350Z,90.55
2023-04-01T11:04:47.877Z,90.82
2023-04-01T11:08:08.231Z,89.28
2023-04-01T11:11:14.590Z,88.25
2023-04-01T11:13:49.031Z,87.08
2023-04-01T11:16:49.470Z,84.98
2023-04-01T11:19:38.225Z,85.31
2023-04-01T11:22:15.401Z,84.99
2023-04-01T11:25:12.820Z,84.23
2023-04-01T11:28:28.873Z,82.65
2023-04-01T11:31:18.032Z,83.09
2023-04-01T11:33:54.142Z,82.50
2023-04-01T11:37:00.691Z,82.84
2023-04-01T11:40:15.261Z,82.31
2023-04-01T11:43:33.451Z,80.82
2023-04-01T11:46:25.253Z,80.86
2023-04-01T11:49:07.880Z,77.80
2023-04-01T11:52:15.582Z,77.24
2023-04-01T11:55:16.811Z,75.62
2023-04-01T11:58:05.963Z,75.04
2023-04-01T12:00:54.006Z,75.51
2023-04-01T12:03:58.860Z,76.38
2023-04-01T12:06:47.769Z,75.67
2023-04-01T12:09:33.626Z,75.16
2023-04-01T12:12:19.462Z,74.98
2023-04-01T12:15:23.559Z,75.38
2023-04-01T12:17:52.376Z,75.24
2023-04-01T12:20:34.804Z,74.58
2023-04-01T12:23:26.514Z,74.45
2023-04-01T12:26:02.385Z,73.83
2023-04-01T12:28:35.720Z,74.52
2023-04-01T12:31:28.578Z,74.18
2023-04-01T12:34:18.505Z,73.34
2023-04-01T12:37:10.712Z,73.48
2023-04-01T12:39:57.630Z,74.37
2023-04-01T12:43:01.034Z,74.54
2023-04-01T12:45:32.105Z,75.39
2023-04-01T12:48:36.466Z,75.12
2023-04-01T12:51:15.761Z,75.60
2023-04-01T12:54:09.166Z,76.36
2023-04-01T12:56:40.060Z,76.66
2023-04-01T12:59:46.986Z,76.61
2023-04-01T13:02:51.177Z,77.83
2023-04-01T13:05:33.518Z,77.76
2023-04-01T13:08:13.316Z,78.09
2023-04-01T13:10:58.526Z,77.97
2023-04-01T13:13:37.285Z,78.60
2023-04-01T13:16:17.715Z,79.28
2023-04-01T13:19:10.865Z,79.54
2023-04-01T13:22:00.158Z,79.96
2023-04-01T13:24:51.229Z,79.88
2023-04-01T13:27:22.087Z,80.46
2023-04-01T13:30:03.412Z,81.12
2023-04-01T13:32:59.599Z,81.43
2023-04-01T13:35:36.826Z,81.96
2023-04-01T13:38:24.000Z,82.24
2023-04-01T13:41:04.089Z,83.00
2023-04-01T13:43:34.016Z,83.16
2023-04-01T13:46:24.142Z,83.59
2023-04-01T13:49:09.754Z,83.79
2023-04-01T13:51:49.091Z,83.84
2023-04-01T13:54:44.869Z,84.45
2023-04-01T13:57:43.059Z,84.91
2023-04-01T14:00:20.879Z,85.87
2023-04-01T14:03:06.366Z,85.83
2023-04-01T14:05:54.240Z,86.41
2023-04-01T14:08:41.614Z,86.65
2023-04-01T14:11:39.936Z,87.22
2023-04-01T14:14:30.622Z,87.41
2023-04-01T14:17:20.792Z,87.64
2023-04-01T14:20:05.018Z,87.73
2023-04-01T14:26:08.043Z,88.52
2023-04-01T14:28:47.853Z,88.80
2023-04-01T14:32:00.231Z,89.31
2023-04-01T14:34:39.582Z,89.60
2023-04-01T14:38:02.954Z,89.79
2023-04-01T14:40:54.705Z,90.39
2023-04-01T14:44:30.487Z,90.65
2023-04-01T14:47:23.086Z,90.63
2023-04-01T14:50:19.429Z,90.89
2023-04-01T14:53:15.089Z,91.76
2023-04-01T14:55:47.043Z,92.13
2023-04-01T14:58:20.952Z,92.20
2023-04-01T15:00:55.318Z,93.29
2023-04-01T15:03:40.584Z,93.13
2023-04-01T15:06:18.694Z,93.46
2023-04-01T15:08:54.703Z,93.86
2023-04-01T15:11:27.225Z,93.86
2023-04-01T15:14:13.093Z,94.29
2023-04-01T15:16:56.656Z,94.52
2023-04-01T15:19:56.005Z,94.86
2023-04-01T15:22:53.903Z,95.07
2023-04-01T15:25:29.057Z,95.05
2023-04-01T15:28:08.118Z,95.60
2023-04-01T15:31:10.583Z,95.72
2023-04-01T15:33:53.955Z,95.94
2023-04-01T15:37:09.357Z,95.89
2023-04-01T15:39:50.121Z,96.36
2023-04-01T15:42:42.069Z,96.14
2023-04-01T15:45:17.976Z,96.45
2023-04-01T15:48:11.068Z,96.67
2023-04-01T15:51:00.682Z,96.84
2023-04-01T15:53:46.783Z,96.70
2023-04-01T15:56:42.849Z,97.63
2023-04-01T15:59:35.973Z,97.31
2023-04-01T16:02:32.128Z,97.81
2023-04-01T16:05:17.936Z,98.23
2023-04-01T16:07:51.136Z,98.54
2023-04-01T16:10:30.576Z,98.37
2023-04-01T16:13:13.984Z,98.80
2023-04-01T16:15:58.938Z,98.91
2023-04-01T16:18:56.528Z,99.12
2023-04-01T16:21:36.789Z,99.44
2023-04-01T16:24:24.968Z,99.59
2023-04-01T16:26:57.680Z,100.00
2023-04-01T16:29:29.110Z,100.00
2023-04-01T16:32:25.273Z,100.00
2023-04-01T16:35:04.323Z,100.00
2023-04-01T16:37:37.171Z,100.00
2023-04-01T16:40:21.895Z,100.00
2023-04-01T16:43:17.293Z,100.00
2023-04-01T16:46:30.072Z,100.00
2023-04-01T16:49:01.959Z,100.00
2023-04-01T16:51:46.916Z,100.00
2023-04-01T16:54:36.708Z,100.00
2023-04-01T16:57:10.202Z,100.00
2023-04-01T16:59:46.488Z,100.00
2023-04-01T17:02:18.615Z,100.00
2023-04-01T17:04:46.672Z,100.00
2023-04-01T17:07:20.896Z,100.00
2023-04-01T17:10:12.587Z,100.00
2023-04-01T17:12:52.738Z,100.00
2023-04-01T17:16:05.664Z,100.00
2023-04-01T17:18:37.076Z,100.00
2023-04-01T17:21:09.000Z,100.00
2023-04-01T17:23:45.400Z,100.00
2023-04-01T17:26:12.174Z,100.00
2023-04-01T17:28:59.361Z,100.00
2023-04-01T17:31:48.043Z,100.00
2023-04-01T17:34:34.292Z,100.00
2023-04-01T17:37:36.292Z,100.00
2023-04-01T17:40:18.293Z,100.00
2023-04-01T17:42:49.247Z,100.00
2023-04-01T17:46:02.725Z,100.00
2023-04-01T17:49:23.490Z,100.00
2023-04-01T17:51:59.548Z,100.00
2023-04-01T17:54:38.767Z,100.00
2023-04-01T17:57:30.152Z,100.00
2023-04-01T17:59:57.019Z,100.00
2023-04-01T18:02:45.596Z,100.00
2023-04-01T18:05:39.809Z,100.00
2023-04-01T18:08:18.564Z,100.00
2023-04-01T18:11:23.620Z,100.00
2023-04-01T18:14:08.946Z,100.00
2023-04-01T18:16:54.325Z,100.00
2023-04-01T18:19:40.465Z,100.00
2023-04-01T18:22:07.315Z,100.00
2023-04-01T18:24:45.206Z,100.00
2023-04-01T18:27:38.099Z,100.00
2023-04-01T18:30:29.151Z,100.00
2023-04-01T18:33:22.606Z,100.00
2023-04-01T18:35:58.483Z,100.00
2023-04-01T18:38:31.617Z,100.00
2023-04-01T18:41:17.212Z,100.00
2023-04-01T18:44:02.381Z,100.00
2023-04-01T18:46:45.668Z,100.00
2023-04-01T18:49:24.574Z,100.00
2023-04-01T18:51:57.068Z,100.00
2023-04-01T18:54:49.355Z,100.00
2023-04-01T18:57:20.677Z,100.00
2023-04-01T19:00:09.824Z,100.00
2023-04-01T19:02:43.123Z,100.00
2023-04-01T19:05:35.939Z,100.00
2023-04-01T19:08:25.920Z,100.00
2023-04-01T19:11:01.282Z,100.00
2023-04-01T19:14:07.069Z,100.00
2023-04-01T19:16:52.717Z,100.00
2023-04-01T19:19:57.033Z,100.00
2023-04-01T19:22:51.893Z,100.00
2023-04-01T19:25:32.532Z,100.00
2023-04-01T19:28:02.375Z,100.00
2023-04-01T19:30:36.421Z,100.00
2023-04-01T19:33:21.934Z,100.00
2023-04-01T19:36:05.590Z,100.00
2023-04-01T19:38:40.337Z,100.00
2023-04-01T19:41:16.304Z,100.00
2023-04-01T19:43:55.625Z,100.00
2023-04-01T19:46:37.808Z,100.00
2023-04-01T19:49:07.618Z,100.00
2023-04-01T19:51:56.122Z,100.00
2023-04-01T19:54:44.419Z,100.00
2023-04-01T19:57:56.173Z,100.00
2023-04-01T20:00:30.601Z,100.00
2023-04-01T20:03:12.709Z,100.00
2023-04-01T20:05:41.365Z,100.00
2023-04-01T20:08:38.954Z,100.00
2023-04-01T20:11:08.641Z,100.00
2023-04-01T20:13:38.769Z,100.00
2023-04-01T20:16:07.171Z,100.00
2023-04-01T20:18:40.808Z,100.00
2023-04-01T20:21:23.708Z,100.00
2023-04-01T20:24:01.896Z,100.00
2023-04-01T20:26:50.729Z,100.00
2023-04-01T20:29:37.584Z,100.00
2023-04-01T20:32:13.812Z,100.00
2023-04-01T20:35:02.580Z,100.00
2023-04-01T20:37:41.436Z,100.00
2023-04-01T20:40:14.448Z,100.00
2023-04-01T20:43:14.628Z,100.00
2023-04-01T20:45:57.593Z,100.00
2023-04-01T20:48:46.676Z,100.00
2023-04-01T20:51:18.888Z,100.00
2023-04-01T20:54:02.544Z,100.00
2023-04-01T20:56:40.464Z,100.00
2023-04-01T20:59:55.216Z,100.00
2023-04-01T21:02:31.346Z,100.00
2023-04-01T21:05:11.427Z,100.00
2023-04-01T21:08:07.083Z,100.00
2023-04-01T21:11:03.627Z,100.00
2023-04-01T21:14:25.864Z,100.00
2023-04-01T21:17:17.386Z,100.00
2023-04-01T21:19:52.113Z,100.00
2023-04-01T21:22:31.130Z,100.00
2023-04-01T21:25:19.151Z,100.00
2023-04-01T21:28:02.056Z,100.00
2023-04-01T21:30:45.159Z,100.00
2023-04-01T21:33:33.791Z,100.00
2023-04-01T21:36:19.422Z,100.00
2023-04-01T21:39:14.682Z,100.00
2023-04-01T21:41:57.007Z,100.00
2023-04-01T21:44:45.087Z,100.00
2023-04-01T21:47:22.846Z,100.00
2023-04-01T21:50:15.928Z,100.00
2023-04-01T21:53:20.494Z,100.00
2023-04-01T21:56:24.771Z,100.00
2023-04-01T21:59:03.656Z,100.00
2023-04-01T22:01:57.410Z,100.00
2023-04-01T22:04:46.111Z,100.00
2023-04-01T22:07:16.521Z,100.00
2023-04-01T22:10:06.198Z,100.00
2023-04-01T22:12:51.404Z,100.00
2023-04-01T22:15:47.502Z,100.00
2023-04-01T22:18:17.407Z,100.00
2023-04-01T22:20:46.119Z,100.00
2023-04-01T22:23:34.117Z,100.00
2023-04-01T22:26:07.061Z,100.00
2023-04-01T22:28:58.351Z,100.00
2023-04-01T22:31:52.317Z,100.00
2023-04-01T22:34:43.368Z,100.00
2023-04-01T22:37:13.191Z,100.00
2023-04-01T22:39:56.156Z,100.00
2023-04-01T22:42:42.018Z,100.00
2023-04-01T22:45:36.619Z,100.00
2023-04-01T22:48:16.775Z,100.00
2023-04-01T22:50:51.672Z,100.00
2023-04-01T22:53:33.689Z,100.00
2023-04-01T22:56:02.509Z,100.00
2023-04-01T22:58:35.688Z,100.00
2023-04-01T23:01:06.752Z,100.00
2023-04-01T23:03:40.464Z,100.00
2023-04-01T23:06:07.617Z,100.00
2023-04-01T23:08:55.403Z,100.00
2023-04-01T23:11:34.910Z,100.00
2023-04-01T23:14:26.401Z,100.00
2023-04-01T23:17:03.971Z,100.00
2023-04-01T23:19:52.396Z,100.00
2023-04-01T23:22:34.411Z,100.00
2023-04-01T23:25:46.343Z,100.00
2023-04-01T23:28:16.024Z,100.00
2023-04-01T23:30:42.751Z,100.00
2023-04-01T23:33:29.978Z,100.00
2023-04-01T23:36:11.660Z,100.00
2023-04-01T23:38:40.527Z,100.00
2023-04-01T23:41:07.626Z,100.00
2023-04-01T23:43:39.004Z,100.00
2023-04-01T23:46:08.502Z,100.00
2023-04-01T23:48:38.176Z,100.00
2023-04-01T23:51:05.300Z,100.00
2023-04-01T23:53:34.715Z,100.00
2023-04-01T23:56:03.096Z,100.00
2023-04-01T23:58:40.381Z,100.00
